Time;durP1;ratioP1;P1;durP2;ratioP2;P2;SDS_P1;SDS_P2;PMS_P1;PMS_P2;Temp;Humidity;BMP_temperature;BMP_pressure;BME280_temperature;BME280_humidity;BME280_pressure;Samples;Min_cycle;Max_cycle;Signal;HPM_P1;HPM_P2
2022/01/16 00:04:58;;;;;;;51.2;65.8;;;;;;;-3.1;81.9;99710;;;;
2022/01/16 00:14:58;;;;;;;51.2;65.8;;;;;;;-3;81.8;99700;;;;
2022/01/16 00:25:58;;;;;;;59.8;82.2;;;;;;;-3;81.8;99660;;;;
2022/01/16 00:35:58;;;;;;;59.8;82.2;;;;;;;-3;81.8;99700;;;;
2022/01/16 00:45:58;;;;;;;59.8;82.2;;;;;;;-3;81.5;99680;;;;
2022/01/16 00:56:58;;;;;;;63.9;83.8;;;;;;;-3.2;81.1;99690;;;;
2022/01/16 01:07:58;;;;;;;63.9;83.8;;;;;;;-3.3;81.2;99690;;;;
2022/01/16 01:17:58;;;;;;;63.9;83.8;;;;;;;-3.1;82.5;99660;;;;
2022/01/16 01:28:58;;;;;;;68.5;87.7;;;;;;;-2.9;82.7;99650;;;;
2022/01/16 01:38:58;;;;;;;68.5;87.7;;;;;;;-2.8;82.5;99550;;;;
2022/01/16 01:59:58;;;;;;;65;83.9;;;;;;;-2.8;82.1;99570;;;;
2022/01/16 02:11:01;;;;;;;65;83.9;;;;;;;-2.9;82.1;99550;;;;
2022/01/16 02:32:02;;;;;;;55.2;67.5;;;;;;;-3.1;81.2;99580;;;;
2022/01/16 02:41:59;;;;;;;55.2;67.5;;;;;;;-3.3;81.2;99600;;;;
2022/01/16 02:52:58;;;;;;;49.8;66.1;;;;;;;-3.5;80.4;99570;;;;
2022/01/16 03:03:58;;;;;;;49.8;66.1;;;;;;;-3.8;80;99570;;;;
2022/01/16 03:13:58;;;;;;;49.8;66.1;;;;;;;-4;79.9;99570;;;;
2022/01/16 03:23:58;;;;;;;47.1;56.5;;;;;;;-4.3;79.4;99570;;;;
2022/01/16 03:34:58;;;;;;;47.1;56.5;;;;;;;-4.5;79.6;99560;;;;
2022/01/16 03:44:58;;;;;;;47.1;56.5;;;;;;;-4.6;80.1;99540;;;;
2022/01/16 03:55:58;;;;;;;63.8;80.6;;;;;;;-4.6;80.5;99520;;;;
2022/01/16 04:06:59;;;;;;;63.8;80.6;;;;;;;-4.6;81;99500;;;;
2022/01/16 04:16:58;;;;;;;63.8;80.6;;;;;;;-4.4;82.1;99480;;;;
2022/01/16 04:27:58;;;;;;;56.5;70.6;;;;;;;-4.4;81.5;99490;;;;
2022/01/16 04:37:58;;;;;;;56.5;70.6;;;;;;;-4.6;80.9;99490;;;;
2022/01/16 04:48:58;;;;;;;56.5;70.6;;;;;;;-4.8;80.4;99490;;;;
2022/01/16 04:59:58;;;;;;;57.7;76.2;;;;;;;-5;80.3;99470;;;;
2022/01/16 05:09:58;;;;;;;57.7;76.2;;;;;;;-5.1;80.8;99460;;;;
2022/01/16 05:19:58;;;;;;;57.7;76.2;;;;;;;-5;80.6;99460;;;;
2022/01/16 05:29:58;;;;;;;64.1;82.3;;;;;;;-5;80.6;99450;;;;
2022/01/16 05:40:58;;;;;;;64.1;82.3;;;;;;;-5;80.1;99440;;;;
2022/01/16 05:51:58;;;;;;;58;70.9;;;;;;;-5.1;79.5;99440;;;;
2022/01/16 06:01:58;;;;;;;58;70.9;;;;;;;-5.2;79.3;99440;;;;
2022/01/16 06:12:58;;;;;;;58;70.9;;;;;;;-5.2;79.6;99440;;;;
2022/01/16 06:22:59;;;;;;;64.9;78.6;;;;;;;-5.2;79.4;99430;;;;
2022/01/16 06:32:58;;;;;;;64.9;78.6;;;;;;;-5.2;79.1;99420;;;;
2022/01/16 06:42:58;;;;;;;64.9;78.6;;;;;;;-5.2;79.1;99410;;;;
2022/01/16 06:54:00;;;;;;;42.8;59.8;;;;;;;-5.1;78.9;99410;;;;
2022/01/16 07:03:58;;;;;;;42.8;59.8;;;;;;;-5.1;79.2;99410;;;;
2022/01/16 07:14:58;;;;;;;42.8;59.8;;;;;;;-4.8;79.2;99390;;;;
2022/01/16 07:25:58;;;;;;;57.7;70.1;;;;;;;-4.5;79.4;99360;;;;
2022/01/16 07:35:58;;;;;;;57.7;70.1;;;;;;;-4.1;80;99360;;;;
2022/01/16 07:46:58;;;;;;;57.7;70.1;;;;;;;-3.8;79.3;99370;;;;
2022/01/16 07:56:58;;;;;;;54.4;68.5;;;;;;;-3.5;79;99360;;;;
2022/01/16 08:07:58;;;;;;;54.4;68.5;;;;;;;-3.2;79;99350;;;;
2022/01/16 08:18:58;;;;;;;54.4;68.5;;;;;;;-2.9;78.7;99350;;;;
2022/01/16 08:29:58;;;;;;;55;65.9;;;;;;;-2.5;79.1;99330;;;;
2022/01/16 08:40:58;;;;;;;55;65.9;;;;;;;-2.3;78.7;99300;;;;
2022/01/16 08:50:58;;;;;;;54.4;74.6;;;;;;;-1.8;78.6;99280;;;;
2022/01/16 09:01:58;;;;;;;54.4;74.6;;;;;;;-1.4;78.6;99270;;;;
2022/01/16 09:11:58;;;;;;;54.4;74.6;;;;;;;-1.2;77.6;99250;;;;
2022/01/16 09:21:58;;;;;;;40.1;49.9;;;;;;;-0.7;78;99230;;;;
2022/01/16 09:32:58;;;;;;;40.1;49.9;;;;;;;-0.3;77.8;99200;;;;
2022/01/16 09:43:58;;;;;;;40.1;49.9;;;;;;;0;76.9;99200;;;;
2022/01/16 09:53:59;;;;;;;48.6;65.1;;;;;;;0.3;76.7;99200;;;;
2022/01/16 10:03:58;;;;;;;48.6;65.1;;;;;;;0.7;76.4;99180;;;;
2022/01/16 10:14:58;;;;;;;48.6;65.1;;;;;;;1.2;75.7;99160;;;;
2022/01/16 10:25:58;;;;;;;58.2;66.8;;;;;;;1.6;74.5;99140;;;;
2022/01/16 10:31:29;;;;;;;58.2;66.8;;;;;;;1.6;74.5;99140;;;;
2022/01/16 10:41:29;;;;;;;58.2;66.8;;;;;;;2.1;74.3;99130;;;;
2022/01/16 10:51:33;;;;;;;56.8;69.4;;;;;;;2.5;72.1;99120;;;;
2022/01/16 11:01:29;;;;;;;56.8;69.4;;;;;;;2.7;68.3;99090;;;;
2022/01/16 11:12:29;;;;;;;56.8;69.4;;;;;;;3.4;69.8;99070;;;;
2022/01/16 11:22:34;;;;;;;45.1;53.9;;;;;;;3.7;66.9;99070;;;;
2022/01/16 11:33:29;;;;;;;45.1;53.9;;;;;;;3.9;65.6;99060;;;;
2022/01/16 11:44:29;;;;;;;45.1;53.9;;;;;;;4;63.3;99060;;;;
2022/01/16 11:54:29;;;;;;;42.9;50.7;;;;;;;4.4;62.4;99060;;;;
2022/01/16 12:04:29;;;;;;;42.9;50.7;;;;;;;4.6;59.4;99060;;;;
2022/01/16 12:14:29;;;;;;;42.9;50.7;;;;;;;4.7;55.7;99060;;;;
2022/01/16 12:25:29;;;;;;;33.9;41.9;;;;;;;4.8;52.5;99050;;;;
2022/01/16 12:36:29;;;;;;;33.9;41.9;;;;;;;5;54.6;99030;;;;
2022/01/16 12:46:29;;;;;;;33.9;41.9;;;;;;;4.7;54;99030;;;;
2022/01/16 12:57:29;;;;;;;33;40.3;;;;;;;4.3;53.6;99020;;;;
2022/01/16 13:08:29;;;;;;;33;40.3;;;;;;;3.8;56.5;99000;;;;
2022/01/16 13:18:29;;;;;;;33;40.3;;;;;;;3.6;57.1;98990;;;;
2022/01/16 13:28:29;;;;;;;41.2;52.3;;;;;;;3.5;57.8;98980;;;;
2022/01/16 13:39:32;;;;;;;41.2;52.3;;;;;;;3.4;58;98950;;;;
2022/01/16 13:50:29;;;;;;;42;49.2;;;;;;;3.4;59.1;98950;;;;
2022/01/16 14:00:29;;;;;;;42;49.2;;;;;;;3.3;60.2;98930;;;;
2022/01/16 14:10:29;;;;;;;42;49.2;;;;;;;3.2;60;98910;;;;
2022/01/16 14:21:58;;;;;;;51;57.1;;;;;;;2.9;61.6;98910;;;;
2022/01/16 14:30:29;;;;;;;51;57.1;;;;;;;2.7;61.6;98890;;;;
2022/01/16 14:40:29;;;;;;;51;57.1;;;;;;;2.6;61;98880;;;;
2022/01/16 14:51:29;;;;;;;47.1;54.2;;;;;;;2.5;60.8;98860;;;;
2022/01/16 15:01:29;;;;;;;47.1;54.2;;;;;;;2.3;61.1;98850;;;;
2022/01/16 15:12:29;;;;;;;47.1;54.2;;;;;;;2.1;61.3;98830;;;;
2022/01/16 15:22:29;;;;;;;46.5;53.3;;;;;;;1.9;61.4;98840;;;;
2022/01/16 15:32:29;;;;;;;46.5;53.3;;;;;;;1.6;62;98830;;;;
2022/01/16 15:42:29;;;;;;;46.5;53.3;;;;;;;1.3;63.3;98850;;;;
2022/01/16 15:53:29;;;;;;;44.6;62.5;;;;;;;1;63.8;98850;;;;
2022/01/16 16:03:30;;;;;;;44.6;62.5;;;;;;;0.9;63.6;98860;;;;
2022/01/16 16:13:29;;;;;;;44.6;62.5;;;;;;;0.6;63.5;98850;;;;
2022/01/16 18:42:30;;;;;;;66.2;80.9;;;;;;;1.3;72.1;98960;;;;
2022/01/16 18:52:29;;;;;;;41.5;53.5;;;;;;;1.4;72.2;98970;;;;
2022/01/16 19:03:30;;;;;;;41.5;53.5;;;;;;;1.3;72.9;98980;;;;
2022/01/16 19:13:29;;;;;;;41.5;53.5;;;;;;;1.3;73;98980;;;;
2022/01/16 19:24:29;;;;;;;26.8;31.6;;;;;;;1.2;73.6;98990;;;;
2022/01/16 19:34:29;;;;;;;26.8;31.6;;;;;;;1.4;73.5;99000;;;;
2022/01/16 19:44:29;;;;;;;26.8;31.6;;;;;;;1.6;73.4;99000;;;;
2022/01/16 19:54:29;;;;;;;25.7;32.9;;;;;;;1.9;72.8;99010;;;;
2022/01/16 20:05:31;;;;;;;25.7;32.9;;;;;;;1.8;73;99020;;;;
2022/01/16 20:16:29;;;;;;;25.7;32.9;;;;;;;1.9;72.6;99020;;;;
2022/01/16 20:26:30;;;;;;;26;30.6;;;;;;;2.1;71.7;99020;;;;
2022/01/16 20:36:29;;;;;;;26;30.6;;;;;;;2.3;70.6;99010;;;;
2022/01/16 20:46:29;;;;;;;26;30.6;;;;;;;2.5;70;99020;;;;
2022/01/16 20:56:29;;;;;;;31.7;36.4;;;;;;;2.6;69.5;99020;;;;
2022/01/16 21:07:29;;;;;;;31.7;36.4;;;;;;;2.6;69.1;99020;;;;
2022/01/16 21:17:29;;;;;;;31.7;36.4;;;;;;;2.6;69.4;99010;;;;
2022/01/16 21:27:29;;;;;;;37;47.4;;;;;;;2.6;69.3;99020;;;;
2022/01/16 21:37:29;;;;;;;37;47.4;;;;;;;2.5;69.2;98990;;;;
2022/01/16 21:48:29;;;;;;;26;34.3;;;;;;;2.5;69.2;98990;;;;
2022/01/16 21:58:29;;;;;;;26;34.3;;;;;;;2.6;69.2;98980;;;;
2022/01/16 22:09:29;;;;;;;26;34.3;;;;;;;2.6;69.1;98980;;;;
2022/01/16 22:19:30;;;;;;;21.5;25;;;;;;;2.6;70;98980;;;;
2022/01/16 22:29:29;;;;;;;21.5;25;;;;;;;2.5;71;98980;;;;
2022/01/16 22:40:29;;;;;;;21.5;25;;;;;;;2.4;72.2;98990;;;;
2022/01/16 22:50:29;;;;;;;18.4;24.6;;;;;;;2.3;73.4;98980;;;;
2022/01/16 23:01:29;;;;;;;18.4;24.6;;;;;;;2.2;73.2;98970;;;;
2022/01/16 23:12:29;;;;;;;18.4;24.6;;;;;;;2.3;73.3;98970;;;;
2022/01/16 23:23:29;;;;;;;15.5;18.5;;;;;;;2.3;73.4;98980;;;;
2022/01/16 23:34:29;;;;;;;15.5;18.5;;;;;;;2.4;72.8;98970;;;;
2022/01/16 23:45:31;;;;;;;15.5;18.5;;;;;;;2.5;72.9;98960;;;;
2022/01/16 23:55:29;;;;;;;11.1;16.7;;;;;;;2.4;74;98950;;;;
